CheckWX is a tool to help pilots better visualize weather data.  It is not intended as a substitute for an official pre-flight weather briefing.

02:55:48 UTC

KMKC METAR
Charles B Wheeler Downtown Airport
Kansas City, Missouri, USA
Current

1 hour ago

KMKC 230154Z 36008KT 10SM CLR 24/13 A3015 RMK AO2 SLP203 T02390128
Observed
Jul-23 @ 01:54 UTC
Wind
  • 360° at 8 KTS
Visibility
10 SM
Flight Rules
VFR
Cloud Levels
  • Clear skies
Temperature
24°C / 75°F
Dewpoint
13°C / 55°F
Humidity
50%
Altimeter
30.15" Hg
Pressure
1021.02 hPa
Previous

2 hours ago

KMKC 230054Z 35013KT 10SM CLR 25/13 A3014 RMK AO2 SLP199 T02500128
Observed
Jul-23 @ 00:54 UTC
Wind
  • 350° at 13 KTS
Visibility
10 SM
Flight Rules
VFR
Cloud Levels
  • Clear skies
Temperature
25°C / 77°F
Dewpoint
13°C / 55°F
Humidity
47%
Altimeter
30.14" Hg
Pressure
1020.62 hPa
Previous

3 hours ago

KMKC 222354Z 35016G20KT 10SM FEW060 27/13 A3013 RMK AO2 SLP196 T02670133 10283 20267 58001
Observed
Jul-22 @ 23:54 UTC
Wind
  • 350° at 16 KTS
  • Gusting to 20 KTS
Visibility
10 SM
Flight Rules
VFR
Cloud Levels
  • Few at 6,000' AGL
Temperature
27°C / 81°F
Dewpoint
13°C / 55°F
Heat Index
27°C / 81°F
Humidity
42%
Altimeter
30.13" Hg
Pressure
1020.32 hPa